Time;durP1;ratioP1;P1;durP2;ratioP2;P2;SDS_P1;SDS_P2;PMS_P1;PMS_P2;Temp;Humidity;BMP_temperature;BMP_pressure;BME280_temperature;BME280_humidity;BME280_pressure;Samples;Min_cycle;Max_cycle;Signal;HPM_P1;HPM_P2
2022/06/30 00:00:12;;;;;;;7.37;6.20;;;;;;;18.71;100.00;99671.39;1720992;82;21007;-60
2022/06/30 00:02:40;;;;;;;7.78;6.70;;;;;;;18.75;100.00;99671.55;1715604;82;20946;-59
2022/06/30 00:05:07;;;;;;;7.97;6.90;;;;;;;18.80;100.00;99670.01;1709969;82;20940;-59
2022/06/30 00:07:35;;;;;;;11.35;6.42;;;;;;;18.85;100.00;99669.25;1706076;82;21393;-62
2022/06/30 00:10:03;;;;;;;9.15;6.92;;;;;;;18.90;100.00;99676.55;1705849;82;21396;-63
2022/06/30 00:12:29;;;;;;;10.53;7.35;;;;;;;18.88;100.00;99677.46;1693536;82;21893;-60
2022/06/30 00:14:57;;;;;;;9.90;7.10;;;;;;;18.85;100.00;99681.66;1710744;82;21057;-60
2022/06/30 00:17:24;;;;;;;9.23;7.53;;;;;;;18.83;100.00;99694.98;1733025;81;20994;-60
2022/06/30 00:19:50;;;;;;;8.20;7.30;;;;;;;18.80;100.00;99693.45;1737081;82;21568;-62
2022/06/30 00:22:17;;;;;;;8.50;7.45;;;;;;;18.74;100.00;99690.03;1725666;81;21005;-61
2022/06/30 00:24:43;;;;;;;8.30;7.10;;;;;;;18.71;100.00;99685.73;1734036;82;21059;-62
2022/06/30 00:27:11;;;;;;;11.43;7.87;;;;;;;18.70;100.00;99680.00;1731763;81;21046;-61
2022/06/30 00:29:39;;;;;;;8.83;7.80;;;;;;;18.68;100.00;99686.39;1740725;81;21027;-61
2022/06/30 00:32:07;;;;;;;8.90;7.78;;;;;;;18.66;100.00;99693.63;1739784;82;21058;-61
2022/06/30 00:34:33;;;;;;;12.33;8.10;;;;;;;18.62;100.00;99694.03;1716713;82;21682;-63
2022/06/30 00:37:00;;;;;;;9.93;7.83;;;;;;;18.57;100.00;99697.52;1717266;82;21388;-63
2022/06/30 00:39:29;;;;;;;9.28;8.18;;;;;;;18.54;100.00;99692.66;1727670;81;21043;-63
2022/06/30 00:41:56;;;;;;;8.80;7.90;;;;;;;18.53;100.00;99687.70;1734637;82;21030;-62
2022/06/30 00:44:23;;;;;;;11.97;8.70;;;;;;;18.51;100.00;99686.42;1722484;82;21088;-60
2022/06/30 00:46:50;;;;;;;10.95;7.83;;;;;;;18.50;100.00;99694.41;1741352;82;21535;-60
2022/06/30 00:49:17;;;;;;;9.20;7.62;;;;;;;18.47;100.00;99694.49;1739536;81;21102;-60
2022/06/30 00:51:44;;;;;;;11.35;8.35;;;;;;;18.47;100.00;99703.33;1744561;82;21050;-61
2022/06/30 00:54:11;;;;;;;9.23;8.30;;;;;;;18.48;100.00;99702.20;1734224;82;21087;-61
2022/06/30 00:56:43;;;;;;;9.93;8.15;;;;;;;18.47;100.00;99707.46;1740622;81;21035;-61
2022/06/30 00:59:10;;;;;;;11.85;8.58;;;;;;;18.43;100.00;99705.10;1701895;83;21028;-62
2022/06/30 01:01:36;;;;;;;10.85;8.75;;;;;;;18.39;100.00;99700.81;1727927;82;21471;-62
2022/06/30 01:04:03;;;;;;;10.38;9.18;;;;;;;18.37;100.00;99696.20;1739609;82;21050;-62
2022/06/30 01:06:30;;;;;;;10.95;9.85;;;;;;;18.34;100.00;99698.23;1714086;82;21020;-62
2022/06/30 01:08:57;;;;;;;11.40;9.53;;;;;;;18.31;100.00;99712.09;1723142;81;21074;-62
2022/06/30 01:14:08;;;;;;;14.55;10.55;;;;;;;18.26;100.00;99712.24;1734819;82;21043;-62
2022/06/30 01:16:39;;;;;;;11.38;10.18;;;;;;;18.23;100.00;99712.08;1749602;81;21030;-62
2022/06/30 01:19:06;;;;;;;11.00;9.90;;;;;;;18.20;100.00;99709.41;1752080;80;21451;-62
2022/06/30 01:21:34;;;;;;;11.90;9.88;;;;;;;18.18;100.00;99704.77;1757318;81;21511;-62
2022/06/30 01:24:00;;;;;;;11.48;10.28;;;;;;;18.19;100.00;99694.56;1752912;80;21505;-62
2022/06/30 01:26:30;;;;;;;12.00;10.80;;;;;;;18.18;100.00;99697.06;1755335;80;20982;-62
2022/06/30 01:28:56;;;;;;;11.40;10.30;;;;;;;18.16;100.00;99700.72;1745730;80;21066;-62
2022/06/30 01:31:23;;;;;;;12.33;11.12;;;;;;;18.14;100.00;99696.91;1743436;80;21035;-62
2022/06/30 01:33:50;;;;;;;14.18;10.70;;;;;;;18.12;100.00;99682.66;1740966;81;21115;-62
2022/06/30 01:36:17;;;;;;;11.88;10.72;;;;;;;18.10;100.00;99687.69;1760077;80;21089;-62
2022/06/30 01:38:44;;;;;;;12.90;10.95;;;;;;;18.11;100.00;99688.47;1758300;80;21129;-62
2022/06/30 01:41:12;;;;;;;13.72;10.50;;;;;;;18.07;100.00;99697.95;1746902;81;21081;-62
2022/06/30 01:43:40;;;;;;;11.97;10.78;;;;;;;18.04;100.00;99688.95;1739589;81;21132;-62
2022/06/30 01:46:06;;;;;;;13.15;11.78;;;;;;;18.01;100.00;99690.98;1757845;81;21013;-62
2022/06/30 01:48:33;;;;;;;13.22;11.20;;;;;;;18.00;100.00;99693.48;1759657;80;21061;-62
2022/06/30 01:51:00;;;;;;;16.45;12.50;;;;;;;17.96;100.00;99698.01;1753967;81;21026;-63
2022/06/30 01:53:26;;;;;;;14.50;12.60;;;;;;;17.94;100.00;99700.28;1754487;81;21086;-61
2022/06/30 01:55:53;;;;;;;14.60;13.08;;;;;;;17.92;100.00;99696.23;1750200;80;21592;-61
2022/06/30 01:58:19;;;;;;;14.30;12.28;;;;;;;17.90;100.00;99699.30;1759663;80;21114;-62
2022/06/30 02:00:46;;;;;;;15.25;12.93;;;;;;;17.90;100.00;99698.73;1752703;81;21055;-62
2022/06/30 02:03:13;;;;;;;14.40;12.90;;;;;;;17.88;100.00;99695.51;1740768;81;21071;-62
2022/06/30 02:05:39;;;;;;;15.32;13.25;;;;;;;17.88;100.00;99698.82;1755668;80;21656;-62
2022/06/30 02:08:06;;;;;;;16.02;12.82;;;;;;;17.87;100.00;99691.69;1759640;80;21022;-61
2022/06/30 02:10:33;;;;;;;13.60;12.35;;;;;;;17.87;100.00;99684.80;1750974;81;21472;-62
2022/06/30 02:12:59;;;;;;;16.32;13.00;;;;;;;17.88;100.00;99691.94;1758217;80;21051;-61
2022/06/30 02:15:34;;;;;;;13.98;12.28;;;;;;;17.89;100.00;99697.67;1755821;80;20967;-62
2022/06/30 02:18:08;;;;;;;15.05;13.60;;;;;;;17.90;100.00;99699.30;1705917;81;21061;-62
2022/06/30 02:20:37;;;;;;;14.63;13.13;;;;;;;17.94;100.00;99701.66;1707709;83;20955;-62
2022/06/30 02:23:04;;;;;;;14.95;13.45;;;;;;;17.97;100.00;99702.95;1681139;83;21053;-61
2022/06/30 02:25:32;;;;;;;14.60;13.08;;;;;;;17.96;100.00;99708.23;1712059;82;21529;-62
2022/06/30 02:27:58;;;;;;;14.35;12.78;;;;;;;17.96;100.00;99708.23;1714107;83;21051;-62
2022/06/30 02:30:25;;;;;;;15.08;13.43;;;;;;;17.98;100.00;99708.16;1715432;83;21001;-62
2022/06/30 02:32:52;;;;;;;15.45;13.83;;;;;;;17.99;100.00;99711.16;1712002;83;20997;-61
2022/06/30 02:35:19;;;;;;;15.95;14.03;;;;;;;17.99;100.00;99709.78;1707844;82;21582;-61
2022/06/30 02:37:47;;;;;;;14.73;13.25;;;;;;;17.97;100.00;99720.30;1710839;82;21541;-62
2022/06/30 02:40:13;;;;;;;15.45;13.35;;;;;;;17.99;100.00;99715.29;1714778;83;21023;-62
2022/06/30 02:42:40;;;;;;;14.63;13.13;;;;;;;18.01;100.00;99715.77;1714788;83;21415;-62
2022/06/30 02:45:08;;;;;;;14.63;13.10;;;;;;;18.04;100.00;99714.31;1707827;82;21065;-62
2022/06/30 02:47:37;;;;;;;14.75;13.20;;;;;;;18.07;100.00;99722.73;1709462;83;21703;-62
2022/06/30 02:50:06;;;;;;;13.22;11.95;;;;;;;18.11;100.00;99722.34;1717090;83;21015;-62
2022/06/30 02:52:34;;;;;;;14.65;12.93;;;;;;;18.15;100.00;99729.40;1719490;83;21534;-62
2022/06/30 02:55:02;;;;;;;13.78;12.30;;;;;;;18.18;100.00;99724.05;1718463;82;21002;-62
2022/06/30 02:57:29;;;;;;;11.90;10.78;;;;;;;18.21;100.00;99728.92;1691748;83;21028;-62
2022/06/30 02:59:56;;;;;;;13.93;12.53;;;;;;;18.25;100.00;99730.46;1718949;83;21101;-62
2022/06/30 03:02:22;;;;;;;15.15;12.75;;;;;;;18.26;100.00;99737.04;1709206;83;21056;-62
2022/06/30 03:04:49;;;;;;;13.90;12.50;;;;;;;18.26;100.00;99728.78;1714183;82;21107;-61
2022/06/30 03:07:16;;;;;;;13.90;12.53;;;;;;;18.27;100.00;99735.92;1706855;82;21134;-62
2022/06/30 03:09:42;;;;;;;14.18;12.85;;;;;;;18.28;100.00;99744.41;1707412;83;21066;-62
2022/06/30 03:12:09;;;;;;;13.88;12.53;;;;;;;18.32;100.00;99745.95;1709860;83;21110;-61
2022/06/30 03:14:37;;;;;;;13.03;11.75;;;;;;;18.43;100.00;99739.55;1711827;83;21059;-62
2022/06/30 03:17:04;;;;;;;14.75;11.48;;;;;;;18.58;100.00;99737.17;1725247;81;21041;-62
2022/06/30 03:19:31;;;;;;;13.68;11.28;;;;;;;18.73;100.00;99742.20;1739886;82;21059;-62
2022/06/30 03:21:57;;;;;;;12.55;11.28;;;;;;;18.91;100.00;99751.27;1751127;81;21043;-62
2022/06/30 03:24:24;;;;;;;11.78;10.58;;;;;;;19.09;100.00;99754.25;1738301;82;21023;-62
2022/06/30 03:26:50;;;;;;;12.10;10.90;;;;;;;19.26;100.00;99754.20;1742264;81;21074;-62
2022/06/30 03:29:17;;;;;;;12.30;10.82;;;;;;;19.50;100.00;99756.44;1736712;80;21773;-62
2022/06/30 03:31:43;;;;;;;11.95;10.75;;;;;;;19.74;100.00;99762.75;1750915;81;21062;-62
2022/06/30 03:34:09;;;;;;;10.85;9.75;;;;;;;20.03;100.00;99761.95;1745187;80;21028;-62
2022/06/30 03:36:38;;;;;;;13.58;10.60;;;;;;;20.32;100.00;99757.83;1747541;81;21030;-62
2022/06/30 03:39:05;;;;;;;12.53;9.70;;;;;;;20.57;100.00;99756.84;1747240;80;21651;-62
2022/06/30 03:41:31;;;;;;;10.72;9.68;;;;;;;20.84;100.00;99752.13;1718344;82;21777;-63
2022/06/30 03:43:58;;;;;;;11.00;9.55;;;;;;;20.95;100.00;99751.13;1731417;81;21050;-60
2022/06/30 03:46:25;;;;;;;10.78;9.00;;;;;;;21.12;100.00;99744.06;1738787;81;21062;-62
2022/06/30 03:48:53;;;;;;;9.45;8.45;;;;;;;21.27;100.00;99735.69;1741873;80;21038;-62
2022/06/30 03:51:20;;;;;;;11.68;8.53;;;;;;;21.57;100.00;99732.98;1746576;81;21007;-60
2022/06/30 03:53:46;;;;;;;10.23;8.40;;;;;;;21.77;100.00;99728.48;1742104;80;21078;-60
2022/06/30 03:56:13;;;;;;;9.40;8.00;;;;;;;21.95;100.00;99722.16;1699955;82;21082;-61
2022/06/30 03:58:40;;;;;;;10.05;8.28;;;;;;;22.25;100.00;99713.79;1683857;83;21157;-60
2022/06/30 04:01:07;;;;;;;9.93;9.00;;;;;;;22.25;100.00;99713.79;1685371;83;21012;-60
2022/06/30 04:03:33;;;;;;;10.10;8.95;;;;;;;22.38;100.00;99697.95;1741526;80;21126;-60
2022/06/30 04:06:01;;;;;;;9.00;8.10;;;;;;;22.38;100.00;99697.95;1733885;82;21026;-62
2022/06/30 04:08:28;;;;;;;9.13;8.05;;;;;;;22.43;100.00;99699.89;1735734;81;21571;-61
2022/06/30 04:10:55;;;;;;;9.08;8.23;;;;;;;22.68;100.00;99692.31;1745674;81;21378;-63
2022/06/30 04:13:21;;;;;;;9.85;8.73;;;;;;;22.63;100.00;99691.98;1744368;82;21039;-62
2022/06/30 04:15:48;;;;;;;10.20;8.50;;;;;;;22.63;100.00;99691.98;1751253;82;21003;-62
2022/06/30 04:18:14;;;;;;;12.18;8.08;;;;;;;22.72;100.00;99690.45;1734093;81;21071;-62
2022/06/30 04:20:41;;;;;;;11.20;8.95;;;;;;;22.91;100.00;99698.13;1741952;81;21936;-62
2022/06/30 04:23:08;;;;;;;9.58;8.10;;;;;;;23.17;100.00;99702.02;1726666;82;21040;-62
2022/06/30 04:25:35;;;;;;;7.85;7.15;;;;;;;23.17;100.00;99702.02;1746959;82;20986;-62
2022/06/30 04:28:03;;;;;;;8.08;7.10;;;;;;;23.44;100.00;99690.66;1747396;82;21576;-62
2022/06/30 04:33:15;;;;;;;8.63;7.70;;;;;;;23.48;100.00;99683.80;1732706;81;21038;-63
2022/06/30 04:35:41;;;;;;;9.00;8.20;;;;;;;23.55;100.00;99681.20;1745910;82;21042;-63
2022/06/30 04:38:07;;;;;;;10.55;8.10;;;;;;;23.55;100.00;99685.37;1729733;81;21061;-63
2022/06/30 04:43:19;;;;;;;10.05;7.55;;;;;;;23.71;100.00;99697.27;1751787;81;21699;-63
2022/06/30 04:45:46;;;;;;;7.53;6.65;;;;;;;23.84;100.00;99704.36;1748892;82;21018;-63
2022/06/30 04:48:13;;;;;;;8.43;6.92;;;;;;;24.20;100.00;99696.26;1732879;81;21556;-63
2022/06/30 04:50:40;;;;;;;9.00;6.80;;;;;;;24.51;100.00;99691.19;1726611;82;21511;-63
2022/06/30 04:53:07;;;;;;;8.35;7.47;;;;;;;24.73;100.00;99686.26;1733809;80;21074;-63
2022/06/30 04:55:34;;;;;;;7.78;6.95;;;;;;;24.88;100.00;99681.81;1743018;82;21031;-62
2022/06/30 04:58:01;;;;;;;9.08;8.08;;;;;;;25.00;100.00;99685.25;1721269;81;21624;-63
2022/06/30 05:00:28;;;;;;;8.38;7.58;;;;;;;25.19;100.00;99688.56;1727593;82;21499;-63
2022/06/30 05:02:55;;;;;;;8.33;7.42;;;;;;;25.41;100.00;99696.14;1737901;80;21090;-62
2022/06/30 05:05:21;;;;;;;8.48;7.62;;;;;;;25.71;100.00;99681.77;1731673;81;21030;-62
2022/06/30 05:07:48;;;;;;;8.08;7.17;;;;;;;26.02;100.00;99674.25;1729179;81;21637;-62
2022/06/30 05:10:15;;;;;;;8.83;7.75;;;;;;;26.17;100.00;99678.30;1742507;81;21043;-63
2022/06/30 05:12:41;;;;;;;9.35;8.40;;;;;;;26.37;100.00;99681.75;1723703;81;21063;-62
2022/06/30 05:15:09;;;;;;;11.25;9.23;;;;;;;26.63;100.00;99686.47;1735155;81;21401;-63
2022/06/30 05:17:36;;;;;;;10.98;8.28;;;;;;;26.97;100.00;99685.30;1711057;82;21504;-63
2022/06/30 05:20:05;;;;;;;10.20;8.98;;;;;;;27.23;100.00;99681.59;1753032;81;21580;-65
2022/06/30 05:22:31;;;;;;;9.28;8.00;;;;;;;27.51;100.00;99664.30;1745480;81;21033;-66
2022/06/30 05:27:47;;;;;;;11.05;8.30;;;;;;;28.02;100.00;99664.28;1726698;82;21068;-67
2022/06/30 05:30:15;;;;;;;10.00;7.17;;;;;;;28.40;100.00;99659.52;1753966;81;20974;-68
2022/06/30 05:32:43;;;;;;;9.30;7.55;;;;;;;28.68;100.00;99659.45;1753895;81;20990;-66
2022/06/30 05:35:10;;;;;;;8.18;6.92;;;;;;;28.78;100.00;99654.48;1742248;81;20990;-66
2022/06/30 05:37:38;;;;;;;7.40;6.70;;;;;;;28.68;100.00;99667.27;1746111;82;20978;-66
2022/06/30 05:40:06;;;;;;;7.47;6.67;;;;;;;28.84;100.00;99660.70;1740337;81;20996;-66
2022/06/30 05:42:33;;;;;;;7.92;7.08;;;;;;;28.88;100.00;99658.72;1708552;81;20979;-66
2022/06/30 05:45:00;;;;;;;6.87;6.17;;;;;;;28.96;100.00;99653.34;1734643;81;21033;-66
2022/06/30 05:47:27;;;;;;;8.48;7.33;;;;;;;28.88;100.00;99654.52;1730336;81;21044;-66
2022/06/30 05:49:54;;;;;;;7.62;6.55;;;;;;;28.70;100.00;99656.45;1726647;81;21609;-67
2022/06/30 05:52:20;;;;;;;8.05;6.53;;;;;;;28.58;100.00;99652.60;1754339;81;20982;-66
2022/06/30 05:54:47;;;;;;;8.13;5.95;;;;;;;28.53;100.00;99645.97;1754497;80;21053;-66
2022/06/30 05:57:13;;;;;;;6.58;5.97;;;;;;;28.54;100.00;99651.78;1751761;81;21083;-66
2022/06/30 05:59:40;;;;;;;9.48;6.83;;;;;;;28.64;100.00;99649.61;1732145;80;21023;-67
2022/06/30 06:02:07;;;;;;;6.92;6.12;;;;;;;28.70;100.00;99650.86;1731663;81;21398;-67
2022/06/30 06:04:34;;;;;;;6.20;5.30;;;;;;;28.59;100.00;99650.02;1719766;81;21072;-66
2022/06/30 06:07:02;;;;;;;7.37;5.37;;;;;;;28.74;100.00;99646.07;1753706;81;20961;-65
2022/06/30 06:09:30;;;;;;;5.37;4.87;;;;;;;28.96;100.00;99652.53;1734511;81;21101;-63
2022/06/30 06:11:57;;;;;;;7.83;5.42;;;;;;;29.08;100.00;99647.97;1723103;81;21851;-63
2022/06/30 06:14:24;;;;;;;6.30;5.33;;;;;;;29.08;100.00;99655.78;1744889;81;21114;-64
2022/06/30 06:16:51;;;;;;;6.67;5.30;;;;;;;29.05;100.00;99655.15;1748111;81;21571;-64
2022/06/30 06:19:18;;;;;;;6.75;4.97;;;;;;;28.94;100.00;99657.16;1731122;81;21049;-63
2022/06/30 06:21:45;;;;;;;6.12;4.20;;;;;;;29.19;100.00;99647.39;1733523;81;21067;-63
2022/06/30 06:24:12;;;;;;;5.12;4.03;;;;;;;29.34;100.00;99648.20;1741113;81;21564;-61
2022/06/30 06:26:38;;;;;;;4.30;3.90;;;;;;;29.23;100.00;99650.20;1734996;81;20994;-62
2022/06/30 06:29:14;;;;;;;4.72;3.90;;;;;;;29.12;100.00;99648.78;1745735;81;21134;-61
2022/06/30 06:31:39;;;;;;;4.75;4.20;;;;;;;29.24;100.00;99648.38;1723073;82;21063;-61
2022/06/30 06:34:06;;;;;;;4.87;3.95;;;;;;;29.39;100.00;99646.42;1732253;81;21086;-61
2022/06/30 06:36:33;;;;;;;4.17;3.62;;;;;;;29.14;100.00;99648.58;1744463;81;21044;-61
2022/06/30 06:39:00;;;;;;;4.33;3.90;;;;;;;29.04;100.00;99647.97;1737430;81;21521;-61
2022/06/30 06:41:27;;;;;;;4.33;3.30;;;;;;;29.15;100.00;99643.77;1744009;81;21017;-63
2022/06/30 06:43:53;;;;;;;4.80;3.27;;;;;;;29.29;100.00;99645.82;1742794;81;21055;-61
2022/06/30 06:46:26;;;;;;;3.70;3.33;;;;;;;29.67;100.00;99653.42;1741370;81;20951;-63
2022/06/30 06:48:48;;;;;;;3.95;3.40;;;;;;;29.78;100.00;99647.20;1726301;82;21058;-63
2022/06/30 06:51:15;;;;;;;3.50;3.02;;;;;;;29.96;100.00;99645.21;1716878;81;21660;-62
2022/06/30 06:53:42;;;;;;;3.50;2.85;;;;;;;29.92;100.00;99643.61;1746140;81;21078;-62
2022/06/30 06:56:09;;;;;;;4.67;3.40;;;;;;;30.05;100.00;99642.77;1741964;81;20988;-62
2022/06/30 06:58:35;;;;;;;2.75;2.50;;;;;;;30.18;100.00;99645.96;1739509;81;21502;-63
2022/06/30 07:01:02;;;;;;;4.78;2.92;;;;;;;30.28;100.00;99641.51;1725116;81;20942;-64
2022/06/30 07:03:29;;;;;;;3.37;2.67;;;;;;;30.52;100.00;99640.64;1742722;81;21582;-62
2022/06/30 07:05:56;;;;;;;3.22;2.47;;;;;;;30.60;100.00;99635.19;1732182;81;21016;-63
2022/06/30 07:08:23;;;;;;;4.17;2.40;;;;;;;30.40;100.00;99633.42;1743655;82;21032;-63
2022/06/30 07:10:49;;;;;;;2.75;2.20;;;;;;;30.35;100.00;99622.63;1742627;81;20979;-62
2022/06/30 07:13:16;;;;;;;3.62;2.33;;;;;;;30.64;100.00;99633.17;1709274;82;21054;-62
2022/06/30 07:15:43;;;;;;;3.00;2.70;;;;;;;30.90;97.80;99635.41;1718952;82;21515;-63
2022/06/30 07:18:09;;;;;;;4.33;2.83;;;;;;;31.13;96.34;99626.48;1736452;81;20979;-65
2022/06/30 07:20:36;;;;;;;5.15;3.02;;;;;;;31.41;94.56;99625.45;1741752;82;21421;-63
2022/06/30 07:23:02;;;;;;;3.37;2.45;;;;;;;31.26;97.93;99621.14;1746056;81;21031;-65
2022/06/30 07:25:29;;;;;;;3.35;2.58;;;;;;;30.57;88.82;99620.56;1722872;82;21526;-65
2022/06/30 07:27:56;;;;;;;3.12;2.37;;;;;;;29.94;100.00;99626.55;1743922;81;21429;-63
2022/06/30 07:30:23;;;;;;;3.37;2.45;;;;;;;29.65;100.00;99633.41;1730890;81;21031;-64
2022/06/30 07:32:50;;;;;;;4.15;2.33;;;;;;;29.48;100.00;99632.19;1723524;81;21071;-64
2022/06/30 07:35:18;;;;;;;2.92;2.62;;;;;;;29.44;100.00;99634.19;1744297;82;20992;-64
2022/06/30 07:37:45;;;;;;;4.00;2.72;;;;;;;29.39;100.00;99629.59;1716296;81;21605;-63
2022/06/30 07:40:13;;;;;;;2.95;2.50;;;;;;;29.36;100.00;99631.20;1714769;82;21231;-66
2022/06/30 07:42:41;;;;;;;3.92;2.77;;;;;;;29.38;100.00;99628.79;1701544;82;21050;-65
2022/06/30 07:45:10;;;;;;;3.37;2.37;;;;;;;29.42;100.00;99632.41;1742509;81;21007;-64
2022/06/30 07:47:44;;;;;;;4.33;2.52;;;;;;;29.50;100.00;99632.61;1731664;81;20971;-65
2022/06/30 07:50:07;;;;;;;3.52;2.70;;;;;;;29.54;100.00;99635.41;1734169;81;21011;-65
2022/06/30 07:52:35;;;;;;;5.40;2.60;;;;;;;29.38;100.00;99643.41;1721662;81;21444;-65
2022/06/30 07:55:02;;;;;;;4.25;3.05;;;;;;;29.08;100.00;99638.97;1734972;81;21302;-65
2022/06/30 07:57:29;;;;;;;4.17;2.95;;;;;;;28.90;100.00;99641.52;1746628;82;21444;-64
2022/06/30 07:59:56;;;;;;;3.27;2.42;;;;;;;28.98;100.00;99641.13;1735327;81;21005;-64
2022/06/30 08:02:22;;;;;;;3.25;2.60;;;;;;;29.31;100.00;99644.80;1740854;81;20939;-65
2022/06/30 08:04:49;;;;;;;4.00;2.80;;;;;;;29.82;100.00;99640.99;1741827;81;20999;-65
2022/06/30 08:07:16;;;;;;;3.60;2.35;;;;;;;30.31;100.00;99640.09;1746573;82;21456;-65
2022/06/30 08:09:42;;;;;;;3.30;2.42;;;;;;;30.56;100.00;99637.22;1705517;82;21103;-66
2022/06/30 08:12:10;;;;;;;3.17;2.20;;;;;;;30.96;93.24;99634.39;1739163;81;20979;-66
2022/06/30 08:14:37;;;;;;;4.30;1.90;;;;;;;31.26;98.63;99631.79;1725289;82;21038;-66
2022/06/30 08:17:05;;;;;;;2.92;1.95;;;;;;;31.79;89.62;99630.55;1721341;81;21032;-65
2022/06/30 08:19:33;;;;;;;3.47;2.50;;;;;;;32.30;85.77;99621.99;1722235;82;21039;-63
2022/06/30 08:21:59;;;;;;;3.47;2.10;;;;;;;32.36;76.26;99632.17;1730649;81;21031;-64
2022/06/30 08:24:26;;;;;;;3.65;2.50;;;;;;;32.08;80.92;99628.28;1724799;81;21432;-64
2022/06/30 08:26:53;;;;;;;3.47;1.95;;;;;;;32.30;80.36;99628.23;1711153;83;21533;-64
2022/06/30 08:29:20;;;;;;;3.02;1.90;;;;;;;32.43;73.23;99626.45;1728154;81;21109;-64
2022/06/30 08:31:47;;;;;;;3.98;2.30;;;;;;;32.58;75.91;99625.05;1721784;82;21035;-65
2022/06/30 08:34:14;;;;;;;2.55;2.00;;;;;;;32.69;70.71;99625.75;1722916;81;21129;-65
2022/06/30 08:36:41;;;;;;;2.60;2.00;;;;;;;32.77;69.26;99624.41;1720734;81;21562;-65
2022/06/30 08:42:02;;;;;;;2.30;1.80;;;;;;;32.92;68.24;99628.63;1730176;81;21065;-64
2022/06/30 08:44:22;;;;;;;3.45;2.10;;;;;;;33.28;59.98;99623.88;1713176;81;21122;-65
2022/06/30 08:46:49;;;;;;;4.08;2.25;;;;;;;33.25;58.70;99624.73;1704934;83;21023;-65
2022/06/30 08:49:15;;;;;;;4.22;2.45;;;;;;;33.41;56.56;99627.69;1698874;82;21573;-65
2022/06/30 08:51:43;;;;;;;4.53;2.47;;;;;;;33.06;56.42;99624.79;1732739;81;21398;-65
2022/06/30 08:54:10;;;;;;;4.10;2.20;;;;;;;32.87;56.81;99621.27;1714504;82;21668;-63
2022/06/30 08:56:37;;;;;;;5.40;2.47;;;;;;;32.74;58.43;99621.03;1694200;81;20986;-64
2022/06/30 08:59:04;;;;;;;3.90;2.60;;;;;;;32.81;58.38;99618.11;1715404;81;21093;-63
2022/06/30 09:01:34;;;;;;;4.20;3.10;;;;;;;32.89;61.80;99617.40;1741032;81;20978;-65
2022/06/30 09:04:00;;;;;;;3.08;2.47;;;;;;;32.91;58.26;99619.20;1722175;81;21015;-65
2022/06/30 09:06:28;;;;;;;4.90;2.98;;;;;;;32.54;63.52;99624.30;1726844;81;21012;-65
2022/06/30 09:08:55;;;;;;;3.02;2.72;;;;;;;32.08;70.29;99633.30;1725449;81;21022;-65
2022/06/30 09:11:48;;;;;;;3.52;2.90;;;;;;;31.48;73.67;99624.78;1720053;81;20940;-66
2022/06/30 09:14:36;;;;;;;4.35;2.80;;;;;;;30.69;81.90;99634.13;1715510;82;21624;-65
2022/06/30 09:17:17;;;;;;;6.65;3.20;;;;;;;30.08;92.39;99628.52;1721079;81;20947;-65
2022/06/30 09:20:08;;;;;;;4.28;3.12;;;;;;;30.07;100.00;99631.16;1684135;83;21031;-64
2022/06/30 09:22:38;;;;;;;4.80;3.25;;;;;;;30.20;100.00;99626.69;1713761;81;20912;-65
2022/06/30 09:25:09;;;;;;;6.90;3.85;;;;;;;30.19;88.90;99627.89;1722200;82;21059;-64
2022/06/30 09:27:37;;;;;;;4.37;3.45;;;;;;;30.09;100.00;99625.92;1724617;81;21545;-65
2022/06/30 09:30:13;;;;;;;6.22;3.52;;;;;;;29.84;100.00;99629.35;1721049;82;21070;-63
2022/06/30 09:32:57;;;;;;;6.28;3.62;;;;;;;29.69;100.00;99625.77;1717633;82;20975;-65
2022/06/30 09:35:29;;;;;;;6.78;3.90;;;;;;;29.67;100.00;99619.77;1724302;81;21026;-64
2022/06/30 09:38:03;;;;;;;5.45;3.47;;;;;;;29.58;100.00;99621.56;1724290;81;21071;-65
2022/06/30 09:43:35;;;;;;;7.15;4.45;;;;;;;29.45;100.00;99618.98;1723049;81;21146;-64
2022/06/30 09:46:03;;;;;;;5.83;4.45;;;;;;;29.05;100.00;99610.31;1729047;82;20983;-65
2022/06/30 09:48:33;;;;;;;5.20;4.00;;;;;;;28.87;100.00;99610.91;1724108;83;21094;-64
2022/06/30 09:51:04;;;;;;;7.12;4.53;;;;;;;28.85;100.00;99605.48;1724787;82;20987;-63
2022/06/30 09:53:31;;;;;;;4.78;4.10;;;;;;;28.99;100.00;99614.72;1705261;81;21059;-65
2022/06/30 09:56:14;;;;;;;6.25;3.62;;;;;;;29.05;100.00;99603.30;1718582;82;21935;-63
2022/06/30 09:58:42;;;;;;;4.90;4.00;;;;;;;29.22;100.00;99607.94;1724595;82;21065;-66
2022/06/30 10:01:09;;;;;;;4.37;3.75;;;;;;;29.13;100.00;99611.13;1724884;82;21533;-65
2022/06/30 10:03:47;;;;;;;4.47;3.98;;;;;;;28.96;100.00;99607.11;1721838;81;21048;-65
2022/06/30 10:06:15;;;;;;;5.50;3.90;;;;;;;28.61;100.00;99602.20;1726761;81;21026;-65
2022/06/30 10:08:42;;;;;;;4.78;4.12;;;;;;;28.65;100.00;99606.41;1725050;82;21055;-66
2022/06/30 10:11:09;;;;;;;4.42;3.80;;;;;;;28.81;100.00;99607.47;1720591;81;21673;-63
2022/06/30 10:13:40;;;;;;;5.40;4.20;;;;;;;28.72;100.00;99601.45;1723147;82;21118;-66
2022/06/30 10:16:07;;;;;;;4.30;3.67;;;;;;;28.59;100.00;99601.78;1724723;82;20971;-65
2022/06/30 10:18:39;;;;;;;4.87;3.60;;;;;;;28.58;100.00;99605.80;1724752;82;21070;-65
2022/06/30 10:21:05;;;;;;;5.30;4.05;;;;;;;28.66;100.00;99607.41;1731185;82;21039;-64
2022/06/30 10:23:33;;;;;;;6.10;3.65;;;;;;;28.53;100.00;99608.97;1748877;81;21459;-65
2022/06/30 10:25:59;;;;;;;4.42;3.70;;;;;;;28.41;100.00;99614.14;1736872;81;21018;-67
2022/06/30 10:28:29;;;;;;;4.72;3.65;;;;;;;28.34;100.00;99614.11;1744096;81;21027;-65
2022/06/30 10:33:51;;;;;;;;;;;;;;;28.46;100.00;99611.74;1793869;79;22884;-65
2022/06/30 10:36:30;;;;;;;4.00;3.50;;;;;;;28.62;100.00;99617.82;1726061;82;20097;-64
2022/06/30 10:39:10;;;;;;;5.05;4.10;;;;;;;28.50;100.00;99613.16;1723887;82;21114;-63
2022/06/30 10:41:46;;;;;;;4.87;3.67;;;;;;;28.29;100.00;99608.88;1722037;83;21059;-65
2022/06/30 10:51:38;;;;;;;;;;;;;;;28.32;100.00;99605.28;1888769;76;22733;-64
2022/06/30 10:54:06;;;;;;;6.00;4.55;;;;;;;28.28;100.00;99605.27;1831840;75;20138;-65
2022/06/30 10:56:55;;;;;;;5.22;4.40;;;;;;;28.28;100.00;99604.46;1850368;75;21051;-65
2022/06/30 10:59:37;;;;;;;5.25;4.50;;;;;;;28.33;100.00;99608.30;1832321;75;20990;-65
2022/06/30 11:02:22;;;;;;;6.97;4.60;;;;;;;28.19;100.00;99604.84;1890030;75;21410;-64
2022/06/30 11:05:23;;;;;;;4.95;3.92;;;;;;;28.12;100.00;99609.01;1873547;75;21577;-63
2022/06/30 11:07:49;;;;;;;6.47;4.17;;;;;;;28.08;100.00;99601.99;1846934;75;20968;-65
2022/06/30 11:10:17;;;;;;;4.85;4.10;;;;;;;28.07;100.00;99604.58;1854654;75;21534;-64
2022/06/30 11:12:51;;;;;;;9.20;3.87;;;;;;;28.09;100.00;99602.80;1853428;75;21419;-65
2022/06/30 11:15:17;;;;;;;5.45;3.65;;;;;;;28.14;100.00;99606.61;1771956;79;21019;-65
2022/06/30 11:17:44;;;;;;;4.78;3.75;;;;;;;28.29;100.00;99606.08;1789610;78;21444;-64
2022/06/30 11:20:13;;;;;;;4.65;3.77;;;;;;;28.13;100.00;99604.99;1795875;77;20959;-63
2022/06/30 11:29:05;;;;;;;5.55;4.20;;;;;;;28.09;100.00;99602.17;1771748;80;20110;-64
2022/06/30 11:31:34;;;;;;;5.15;4.03;;;;;;;28.16;100.00;99605.63;1754668;81;21030;-66
2022/06/30 11:34:08;;;;;;;3.70;3.37;;;;;;;28.24;100.00;99603.64;1749335;81;21048;-66
2022/06/30 11:36:37;;;;;;;3.83;3.42;;;;;;;28.37;100.00;99597.33;1734828;81;21039;-66
2022/06/30 11:39:08;;;;;;;5.60;4.00;;;;;;;28.55;100.00;99598.20;1747520;80;21051;-65
2022/06/30 11:41:55;;;;;;;8.23;3.77;;;;;;;28.74;100.00;99587.25;1755427;81;21077;-64
2022/06/30 11:44:35;;;;;;;4.28;3.72;;;;;;;28.89;100.00;99592.28;1755637;80;21553;-64
2022/06/30 11:47:10;;;;;;;4.00;3.50;;;;;;;28.91;100.00;99591.30;1722676;80;21053;-65
2022/06/30 11:49:52;;;;;;;4.58;3.12;;;;;;;28.92;100.00;99583.88;1749331;80;21109;-65
2022/06/30 11:52:34;;;;;;;5.55;3.72;;;;;;;28.99;100.00;99585.89;1719935;83;21042;-63
2022/06/30 11:55:17;;;;;;;4.00;3.30;;;;;;;29.02;100.00;99587.30;1688857;83;21141;-65
2022/06/30 11:57:46;;;;;;;4.42;4.03;;;;;;;28.89;100.00;99594.48;1738662;80;20971;-66
2022/06/30 12:00:20;;;;;;;4.80;3.58;;;;;;;28.57;100.00;99597.78;1754148;81;20970;-65